Terminal Aerodrome Forecast
Issued by NWS

Home | Current Version | Previous Version | Graphics & Text | Print | Product List | Glossary On
Versions: 1 2 3 4 5 6 7 8 9 10 11 12 13 14 15 16 17 18 19 20 21 22 23 24 25 26 27 28 29 30 31 32 33
000
FTUS43 KLOT 192300
TAFDPA
TAF
KDPA 192330Z 2000/2024 27011G18KT P6SM VCSH SCT050
     FM200100 28006KT P6SM FEW050
     FM200800 VRB03KT 3SM BR SCT250
     FM201400 29009KT P6SM SCT040=

USA.gov is the U.S. government's official web portal to all federal, state and local government web resources and services.